sensor_id;sensor_type;location;lat;lon;timestamp;P1;durP1;ratioP1;P2;durP2;ratioP2
19929;SDS011;10127;47.780;9.606;2022-12-24T00:01:12;0.85;;;0.70;;
19929;SDS011;10127;47.780;9.606;2022-12-24T00:03:38;1.25;;;0.82;;
19929;SDS011;10127;47.780;9.606;2022-12-24T00:06:04;2.58;;;0.98;;
19929;SDS011;10127;47.780;9.606;2022-12-24T00:08:30;3.15;;;0.82;;
19929;SDS011;10127;47.780;9.606;2022-12-24T00:10:56;1.38;;;0.90;;
19929;SDS011;10127;47.780;9.606;2022-12-24T00:13:22;2.38;;;1.30;;
19929;SDS011;10127;47.780;9.606;2022-12-24T00:15:47;0.85;;;0.85;;
19929;SDS011;10127;47.780;9.606;2022-12-24T00:18:13;3.03;;;0.90;;
19929;SDS011;10127;47.780;9.606;2022-12-24T00:20:39;3.45;;;0.77;;
19929;SDS011;10127;47.780;9.606;2022-12-24T00:23:05;3.97;;;0.80;;
19929;SDS011;10127;47.780;9.606;2022-12-24T00:25:31;1.58;;;0.93;;
19929;SDS011;10127;47.780;9.606;2022-12-24T00:27:56;2.28;;;1.00;;
19929;SDS011;10127;47.780;9.606;2022-12-24T00:30:22;2.28;;;0.90;;
19929;SDS011;10127;47.780;9.606;2022-12-24T00:32:47;3.03;;;1.08;;
19929;SDS011;10127;47.780;9.606;2022-12-24T00:35:13;4.38;;;1.00;;
19929;SDS011;10127;47.780;9.606;2022-12-24T00:37:38;2.15;;;0.90;;
19929;SDS011;10127;47.780;9.606;2022-12-24T00:40:04;3.50;;;1.05;;
19929;SDS011;10127;47.780;9.606;2022-12-24T00:42:30;1.45;;;0.70;;
19929;SDS011;10127;47.780;9.606;2022-12-24T00:44:56;1.83;;;0.80;;
19929;SDS011;10127;47.780;9.606;2022-12-24T00:47:21;1.80;;;0.90;;
19929;SDS011;10127;47.780;9.606;2022-12-24T00:49:47;2.58;;;0.80;;
19929;SDS011;10127;47.780;9.606;2022-12-24T00:52:12;2.50;;;0.90;;
19929;SDS011;10127;47.780;9.606;2022-12-24T00:54:38;1.92;;;1.08;;
19929;SDS011;10127;47.780;9.606;2022-12-24T00:57:03;2.47;;;1.00;;
19929;SDS011;10127;47.780;9.606;2022-12-24T00:59:29;2.13;;;0.90;;
19929;SDS011;10127;47.780;9.606;2022-12-24T01:01:54;3.75;;;1.10;;
19929;SDS011;10127;47.780;9.606;2022-12-24T01:04:20;1.67;;;1.00;;
19929;SDS011;10127;47.780;9.606;2022-12-24T01:07:04;1.48;;;1.00;;
19929;SDS011;10127;47.780;9.606;2022-12-24T01:09:30;2.88;;;0.93;;
19929;SDS011;10127;47.780;9.606;2022-12-24T01:11:55;1.05;;;0.80;;
19929;SDS011;10127;47.780;9.606;2022-12-24T01:14:21;2.63;;;1.10;;
19929;SDS011;10127;47.780;9.606;2022-12-24T01:16:46;3.30;;;1.35;;
19929;SDS011;10127;47.780;9.606;2022-12-24T01:19:12;3.08;;;1.25;;
19929;SDS011;10127;47.780;9.606;2022-12-24T01:21:37;1.83;;;0.90;;
19929;SDS011;10127;47.780;9.606;2022-12-24T01:24:03;1.58;;;1.00;;
19929;SDS011;10127;47.780;9.606;2022-12-24T01:26:29;1.83;;;0.90;;
19929;SDS011;10127;47.780;9.606;2022-12-24T01:28:54;1.55;;;1.00;;
19929;SDS011;10127;47.780;9.606;2022-12-24T01:31:21;3.08;;;0.82;;
19929;SDS011;10127;47.780;9.606;2022-12-24T01:33:47;1.67;;;0.88;;
19929;SDS011;10127;47.780;9.606;2022-12-24T01:36:13;2.17;;;1.00;;
19929;SDS011;10127;47.780;9.606;2022-12-24T01:38:40;1.50;;;0.88;;
19929;SDS011;10127;47.780;9.606;2022-12-24T01:41:05;1.35;;;0.88;;
19929;SDS011;10127;47.780;9.606;2022-12-24T01:43:49;1.85;;;1.10;;
19929;SDS011;10127;47.780;9.606;2022-12-24T01:46:19;2.35;;;0.82;;
19929;SDS011;10127;47.780;9.606;2022-12-24T01:48:59;2.55;;;0.80;;
19929;SDS011;10127;47.780;9.606;2022-12-24T01:54:02;0.70;;;0.70;;
19929;SDS011;10127;47.780;9.606;2022-12-24T01:56:33;1.40;;;0.75;;
19929;SDS011;10127;47.780;9.606;2022-12-24T01:59:04;0.70;;;0.63;;
19929;SDS011;10127;47.780;9.606;2022-12-24T02:01:32;1.13;;;0.57;;
19929;SDS011;10127;47.780;9.606;2022-12-24T02:03:58;1.08;;;0.60;;
19929;SDS011;10127;47.780;9.606;2022-12-24T02:06:26;3.13;;;0.88;;
19929;SDS011;10127;47.780;9.606;2022-12-24T02:08:51;1.05;;;0.60;;
19929;SDS011;10127;47.780;9.606;2022-12-24T02:11:20;1.15;;;0.60;;
19929;SDS011;10127;47.780;9.606;2022-12-24T02:13:47;1.45;;;0.70;;
19929;SDS011;10127;47.780;9.606;2022-12-24T02:16:32;1.67;;;0.70;;
19929;SDS011;10127;47.780;9.606;2022-12-24T02:25:22;1.38;;;0.80;;
19929;SDS011;10127;47.780;9.606;2022-12-24T02:31:02;3.08;;;0.77;;
19929;SDS011;10127;47.780;9.606;2022-12-24T02:36:35;0.80;;;0.70;;
19929;SDS011;10127;47.780;9.606;2022-12-24T02:39:07;1.65;;;0.75;;
19929;SDS011;10127;47.780;9.606;2022-12-24T02:41:39;2.03;;;0.70;;
19929;SDS011;10127;47.780;9.606;2022-12-24T02:44:28;0.80;;;0.70;;
19929;SDS011;10127;47.780;9.606;2022-12-24T02:46:56;0.63;;;0.63;;
19929;SDS011;10127;47.780;9.606;2022-12-24T02:49:24;2.17;;;0.80;;
19929;SDS011;10127;47.780;9.606;2022-12-24T03:12:55;4.85;;;0.80;;
19929;SDS011;10127;47.780;9.606;2022-12-24T03:15:27;4.45;;;1.17;;
19929;SDS011;10127;47.780;9.606;2022-12-24T03:17:56;2.42;;;0.82;;
19929;SDS011;10127;47.780;9.606;2022-12-24T03:20:26;10.32;;;0.90;;
19929;SDS011;10127;47.780;9.606;2022-12-24T03:22:57;2.45;;;0.93;;
19929;SDS011;10127;47.780;9.606;2022-12-24T03:25:23;2.25;;;0.90;;
19929;SDS011;10127;47.780;9.606;2022-12-24T03:27:52;1.48;;;0.90;;
19929;SDS011;10127;47.780;9.606;2022-12-24T03:30:20;2.22;;;1.02;;
19929;SDS011;10127;47.780;9.606;2022-12-24T03:32:46;1.70;;;0.90;;
19929;SDS011;10127;47.780;9.606;2022-12-24T03:35:11;3.45;;;1.10;;
19929;SDS011;10127;47.780;9.606;2022-12-24T03:37:37;3.08;;;1.10;;
19929;SDS011;10127;47.780;9.606;2022-12-24T03:40:03;5.32;;;1.13;;
19929;SDS011;10127;47.780;9.606;2022-12-24T03:42:30;3.08;;;0.90;;
19929;SDS011;10127;47.780;9.606;2022-12-24T03:44:56;5.38;;;1.15;;
19929;SDS011;10127;47.780;9.606;2022-12-24T03:47:21;3.03;;;0.95;;
19929;SDS011;10127;47.780;9.606;2022-12-24T03:49:47;2.83;;;0.98;;
19929;SDS011;10127;47.780;9.606;2022-12-24T03:52:12;3.22;;;1.13;;
19929;SDS011;10127;47.780;9.606;2022-12-24T03:54:38;1.50;;;1.13;;
19929;SDS011;10127;47.780;9.606;2022-12-24T03:57:04;2.70;;;1.30;;
19929;SDS011;10127;47.780;9.606;2022-12-24T03:59:29;4.78;;;1.08;;
19929;SDS011;10127;47.780;9.606;2022-12-24T04:01:55;2.67;;;1.75;;
19929;SDS011;10127;47.780;9.606;2022-12-24T04:04:20;3.22;;;1.10;;
19929;SDS011;10127;47.780;9.606;2022-12-24T04:06:46;4.20;;;0.80;;
19929;SDS011;10127;47.780;9.606;2022-12-24T04:09:11;4.18;;;1.10;;
19929;SDS011;10127;47.780;9.606;2022-12-24T04:11:37;4.82;;;1.33;;
19929;SDS011;10127;47.780;9.606;2022-12-24T04:14:03;4.53;;;1.38;;
19929;SDS011;10127;47.780;9.606;2022-12-24T04:16:28;3.92;;;0.90;;
19929;SDS011;10127;47.780;9.606;2022-12-24T04:18:54;1.98;;;1.00;;
19929;SDS011;10127;47.780;9.606;2022-12-24T04:21:19;4.20;;;1.08;;
19929;SDS011;10127;47.780;9.606;2022-12-24T04:23:45;1.38;;;0.90;;
19929;SDS011;10127;47.780;9.606;2022-12-24T04:26:12;1.40;;;0.80;;
19929;SDS011;10127;47.780;9.606;2022-12-24T04:28:38;1.45;;;0.68;;
19929;SDS011;10127;47.780;9.606;2022-12-24T04:31:06;1.02;;;0.70;;
19929;SDS011;10127;47.780;9.606;2022-12-24T04:33:34;1.60;;;0.93;;
19929;SDS011;10127;47.780;9.606;2022-12-24T04:36:00;4.63;;;0.90;;
19929;SDS011;10127;47.780;9.606;2022-12-24T04:38:28;1.58;;;1.15;;
19929;SDS011;10127;47.780;9.606;2022-12-24T04:41:04;2.08;;;0.80;;
19929;SDS011;10127;47.780;9.606;2022-12-24T04:43:32;1.83;;;0.73;;
19929;SDS011;10127;47.780;9.606;2022-12-24T04:46:08;1.40;;;0.80;;
19929;SDS011;10127;47.780;9.606;2022-12-24T04:48:42;1.02;;;0.70;;
19929;SDS011;10127;47.780;9.606;2022-12-24T04:51:09;1.10;;;0.80;;
19929;SDS011;10127;47.780;9.606;2022-12-24T04:53:36;1.48;;;0.70;;
19929;SDS011;10127;47.780;9.606;2022-12-24T04:56:03;2.20;;;0.77;;
19929;SDS011;10127;47.780;9.606;2022-12-24T04:58:32;3.92;;;0.90;;
19929;SDS011;10127;47.780;9.606;2022-12-24T05:01:02;2.03;;;1.10;;
19929;SDS011;10127;47.780;9.606;2022-12-24T05:03:28;3.30;;;0.68;;
19929;SDS011;10127;47.780;9.606;2022-12-24T05:05:59;1.27;;;0.57;;
19929;SDS011;10127;47.780;9.606;2022-12-24T05:08:26;5.15;;;0.90;;
19929;SDS011;10127;47.780;9.606;2022-12-24T05:10:57;3.80;;;0.93;;
19929;SDS011;10127;47.780;9.606;2022-12-24T05:13:24;2.80;;;1.10;;
19929;SDS011;10127;47.780;9.606;2022-12-24T05:15:50;1.10;;;0.80;;
19929;SDS011;10127;47.780;9.606;2022-12-24T05:18:16;3.95;;;1.10;;
19929;SDS011;10127;47.780;9.606;2022-12-24T05:20:41;9.38;;;1.10;;
19929;SDS011;10127;47.780;9.606;2022-12-24T05:23:08;3.53;;;1.17;;
19929;SDS011;10127;47.780;9.606;2022-12-24T05:25:57;2.97;;;1.02;;
19929;SDS011;10127;47.780;9.606;2022-12-24T05:28:42;3.25;;;1.15;;
19929;SDS011;10127;47.780;9.606;2022-12-24T05:31:07;4.85;;;1.13;;
19929;SDS011;10127;47.780;9.606;2022-12-24T05:33:33;5.03;;;1.23;;
19929;SDS011;10127;47.780;9.606;2022-12-24T05:35:59;2.53;;;0.90;;
19929;SDS011;10127;47.780;9.606;2022-12-24T05:38:24;2.20;;;1.15;;
19929;SDS011;10127;47.780;9.606;2022-12-24T05:40:50;4.43;;;1.40;;
19929;SDS011;10127;47.780;9.606;2022-12-24T05:43:15;5.35;;;1.10;;
19929;SDS011;10127;47.780;9.606;2022-12-24T05:45:41;6.32;;;1.33;;
19929;SDS011;10127;47.780;9.606;2022-12-24T05:48:06;3.33;;;1.10;;
19929;SDS011;10127;47.780;9.606;2022-12-24T05:50:32;1.70;;;0.60;;
19929;SDS011;10127;47.780;9.606;2022-12-24T05:52:59;3.60;;;0.88;;
19929;SDS011;10127;47.780;9.606;2022-12-24T05:55:24;3.33;;;1.08;;
19929;SDS011;10127;47.780;9.606;2022-12-24T05:57:50;2.90;;;1.15;;
19929;SDS011;10127;47.780;9.606;2022-12-24T06:00:16;3.95;;;1.42;;
19929;SDS011;10127;47.780;9.606;2022-12-24T06:02:41;4.28;;;0.93;;
19929;SDS011;10127;47.780;9.606;2022-12-24T06:05:07;2.22;;;1.20;;
19929;SDS011;10127;47.780;9.606;2022-12-24T06:07:33;2.78;;;1.10;;
19929;SDS011;10127;47.780;9.606;2022-12-24T06:09:59;3.33;;;1.00;;
19929;SDS011;10127;47.780;9.606;2022-12-24T06:12:24;1.45;;;0.90;;
19929;SDS011;10127;47.780;9.606;2022-12-24T06:14:50;3.28;;;0.90;;
19929;SDS011;10127;47.780;9.606;2022-12-24T06:17:15;1.95;;;0.80;;
19929;SDS011;10127;47.780;9.606;2022-12-24T06:19:41;2.33;;;1.25;;
19929;SDS011;10127;47.780;9.606;2022-12-24T06:22:07;0.82;;;0.70;;
19929;SDS011;10127;47.780;9.606;2022-12-24T06:24:32;3.28;;;0.75;;
19929;SDS011;10127;47.780;9.606;2022-12-24T06:26:58;1.08;;;0.70;;
19929;SDS011;10127;47.780;9.606;2022-12-24T06:29:23;2.90;;;0.80;;
19929;SDS011;10127;47.780;9.606;2022-12-24T06:31:49;2.10;;;0.90;;
19929;SDS011;10127;47.780;9.606;2022-12-24T06:34:14;2.40;;;0.95;;
19929;SDS011;10127;47.780;9.606;2022-12-24T06:36:40;0.68;;;0.68;;
19929;SDS011;10127;47.780;9.606;2022-12-24T06:39:05;1.90;;;0.77;;
19929;SDS011;10127;47.780;9.606;2022-12-24T06:41:31;1.00;;;0.60;;
19929;SDS011;10127;47.780;9.606;2022-12-24T06:43:56;0.93;;;0.68;;
19929;SDS011;10127;47.780;9.606;2022-12-24T06:46:22;1.77;;;1.00;;
19929;SDS011;10127;47.780;9.606;2022-12-24T06:48:48;1.58;;;0.70;;
19929;SDS011;10127;47.780;9.606;2022-12-24T06:51:15;1.13;;;0.68;;
19929;SDS011;10127;47.780;9.606;2022-12-24T06:53:43;1.33;;;0.60;;
19929;SDS011;10127;47.780;9.606;2022-12-24T06:56:10;0.95;;;0.60;;
19929;SDS011;10127;47.780;9.606;2022-12-24T06:58:37;2.92;;;0.85;;
19929;SDS011;10127;47.780;9.606;2022-12-24T07:01:05;0.80;;;0.80;;
19929;SDS011;10127;47.780;9.606;2022-12-24T07:03:32;2.63;;;0.80;;
19929;SDS011;10127;47.780;9.606;2022-12-24T07:05:58;0.98;;;0.80;;
19929;SDS011;10127;47.780;9.606;2022-12-24T07:08:24;0.88;;;0.70;;
19929;SDS011;10127;47.780;9.606;2022-12-24T07:10:51;2.72;;;0.82;;
19929;SDS011;10127;47.780;9.606;2022-12-24T07:13:16;1.13;;;0.80;;
19929;SDS011;10127;47.780;9.606;2022-12-24T07:15:42;0.90;;;0.80;;
19929;SDS011;10127;47.780;9.606;2022-12-24T07:18:08;1.35;;;0.68;;
19929;SDS011;10127;47.780;9.606;2022-12-24T07:20:33;1.70;;;0.82;;
19929;SDS011;10127;47.780;9.606;2022-12-24T07:22:59;1.02;;;0.75;;
19929;SDS011;10127;47.780;9.606;2022-12-24T07:25:25;1.50;;;0.70;;
19929;SDS011;10127;47.780;9.606;2022-12-24T07:27:50;0.95;;;0.80;;
19929;SDS011;10127;47.780;9.606;2022-12-24T07:30:16;3.38;;;0.80;;
19929;SDS011;10127;47.780;9.606;2022-12-24T07:32:42;2.00;;;1.00;;
19929;SDS011;10127;47.780;9.606;2022-12-24T07:35:08;1.97;;;0.90;;
19929;SDS011;10127;47.780;9.606;2022-12-24T07:37:34;2.83;;;1.10;;
19929;SDS011;10127;47.780;9.606;2022-12-24T07:39:59;1.65;;;0.95;;
19929;SDS011;10127;47.780;9.606;2022-12-24T07:42:25;3.70;;;1.00;;
19929;SDS011;10127;47.780;9.606;2022-12-24T07:44:52;1.83;;;0.80;;
19929;SDS011;10127;47.780;9.606;2022-12-24T07:47:17;1.43;;;0.70;;
19929;SDS011;10127;47.780;9.606;2022-12-24T07:49:43;0.83;;;0.67;;
19929;SDS011;10127;47.780;9.606;2022-12-24T07:52:08;1.17;;;0.70;;
19929;SDS011;10127;47.780;9.606;2022-12-24T07:54:34;1.25;;;0.98;;
19929;SDS011;10127;47.780;9.606;2022-12-24T07:57:00;1.50;;;0.80;;
19929;SDS011;10127;47.780;9.606;2022-12-24T07:59:25;2.83;;;0.90;;
19929;SDS011;10127;47.780;9.606;2022-12-24T08:01:51;3.60;;;0.80;;
19929;SDS011;10127;47.780;9.606;2022-12-24T08:04:16;2.97;;;0.90;;
19929;SDS011;10127;47.780;9.606;2022-12-24T08:06:42;2.57;;;0.90;;
19929;SDS011;10127;47.780;9.606;2022-12-24T08:09:07;2.47;;;0.80;;
19929;SDS011;10127;47.780;9.606;2022-12-24T08:11:33;0.80;;;0.70;;
19929;SDS011;10127;47.780;9.606;2022-12-24T08:13:58;0.90;;;0.80;;
19929;SDS011;10127;47.780;9.606;2022-12-24T08:16:24;1.60;;;1.10;;
19929;SDS011;10127;47.780;9.606;2022-12-24T08:18:50;2.53;;;0.80;;
19929;SDS011;10127;47.780;9.606;2022-12-24T08:21:15;1.90;;;0.90;;
19929;SDS011;10127;47.780;9.606;2022-12-24T08:23:41;0.80;;;0.60;;
19929;SDS011;10127;47.780;9.606;2022-12-24T08:26:07;2.40;;;0.83;;
19929;SDS011;10127;47.780;9.606;2022-12-24T08:28:34;3.23;;;0.73;;
19929;SDS011;10127;47.780;9.606;2022-12-24T08:31:00;3.13;;;1.03;;
19929;SDS011;10127;47.780;9.606;2022-12-24T08:33:26;1.10;;;0.60;;
19929;SDS011;10127;47.780;9.606;2022-12-24T08:35:52;1.95;;;0.65;;
19929;SDS011;10127;47.780;9.606;2022-12-24T08:38:20;1.53;;;0.73;;
19929;SDS011;10127;47.780;9.606;2022-12-24T08:40:46;1.27;;;0.87;;
19929;SDS011;10127;47.780;9.606;2022-12-24T08:43:14;2.87;;;0.80;;
19929;SDS011;10127;47.780;9.606;2022-12-24T08:45:40;2.67;;;0.80;;
19929;SDS011;10127;47.780;9.606;2022-12-24T08:48:07;2.97;;;0.90;;
19929;SDS011;10127;47.780;9.606;2022-12-24T08:50:34;1.03;;;0.80;;
19929;SDS011;10127;47.780;9.606;2022-12-24T08:52:59;1.10;;;0.60;;
19929;SDS011;10127;47.780;9.606;2022-12-24T08:55:25;1.43;;;0.87;;
19929;SDS011;10127;47.780;9.606;2022-12-24T08:57:51;3.20;;;0.90;;
19929;SDS011;10127;47.780;9.606;2022-12-24T09:00:16;4.23;;;1.17;;
19929;SDS011;10127;47.780;9.606;2022-12-24T09:02:42;4.70;;;1.30;;
19929;SDS011;10127;47.780;9.606;2022-12-24T09:05:08;2.58;;;0.90;;
19929;SDS011;10127;47.780;9.606;2022-12-24T09:07:34;4.40;;;1.00;;
19929;SDS011;10127;47.780;9.606;2022-12-24T09:09:59;2.13;;;0.80;;
19929;SDS011;10127;47.780;9.606;2022-12-24T09:12:25;2.80;;;1.00;;
19929;SDS011;10127;47.780;9.606;2022-12-24T09:14:51;2.40;;;1.00;;
19929;SDS011;10127;47.780;9.606;2022-12-24T09:17:18;1.00;;;0.80;;
19929;SDS011;10127;47.780;9.606;2022-12-24T09:19:44;1.33;;;0.90;;
19929;SDS011;10127;47.780;9.606;2022-12-24T09:22:10;1.47;;;0.80;;
19929;SDS011;10127;47.780;9.606;2022-12-24T09:24:36;2.65;;;0.65;;
19929;SDS011;10127;47.780;9.606;2022-12-24T09:27:01;2.70;;;0.80;;
19929;SDS011;10127;47.780;9.606;2022-12-24T09:29:28;4.83;;;1.07;;
19929;SDS011;10127;47.780;9.606;2022-12-24T09:31:54;1.07;;;0.97;;
19929;SDS011;10127;47.780;9.606;2022-12-24T09:34:20;3.13;;;1.10;;
19929;SDS011;10127;47.780;9.606;2022-12-24T09:36:46;3.03;;;1.10;;
19929;SDS011;10127;47.780;9.606;2022-12-24T09:39:11;2.40;;;1.10;;
19929;SDS011;10127;47.780;9.606;2022-12-24T09:45:02;1.60;;;0.90;;
19929;SDS011;10127;47.780;9.606;2022-12-24T09:47:48;1.53;;;0.80;;
19929;SDS011;10127;47.780;9.606;2022-12-24T09:52:59;3.20;;;0.73;;
19929;SDS011;10127;47.780;9.606;2022-12-24T09:55:35;1.33;;;0.77;;
19929;SDS011;10127;47.780;9.606;2022-12-24T09:58:09;0.90;;;0.80;;
19929;SDS011;10127;47.780;9.606;2022-12-24T10:00:44;1.73;;;0.90;;
19929;SDS011;10127;47.780;9.606;2022-12-24T10:03:12;2.03;;;0.90;;
19929;SDS011;10127;47.780;9.606;2022-12-24T10:08:29;2.40;;;1.10;;
19929;SDS011;10127;47.780;9.606;2022-12-24T10:11:31;1.20;;;0.87;;
19929;SDS011;10127;47.780;9.606;2022-12-24T10:14:17;4.45;;;1.40;;
19929;SDS011;10127;47.780;9.606;2022-12-24T10:23:04;1.92;;;1.05;;
19929;SDS011;10127;47.780;9.606;2022-12-24T10:28:44;3.40;;;0.80;;
19929;SDS011;10127;47.780;9.606;2022-12-24T10:31:13;1.50;;;0.70;;
19929;SDS011;10127;47.780;9.606;2022-12-24T10:33:43;4.30;;;1.17;;
19929;SDS011;10127;47.780;9.606;2022-12-24T10:36:15;3.07;;;1.47;;
19929;SDS011;10127;47.780;9.606;2022-12-24T10:38:44;4.07;;;1.63;;
19929;SDS011;10127;47.780;9.606;2022-12-24T10:41:10;3.08;;;1.10;;
19929;SDS011;10127;47.780;9.606;2022-12-24T10:43:38;1.70;;;1.30;;
19929;SDS011;10127;47.780;9.606;2022-12-24T10:46:09;1.47;;;1.23;;
19929;SDS011;10127;47.780;9.606;2022-12-24T10:48:57;1.07;;;0.90;;
19929;SDS011;10127;47.780;9.606;2022-12-24T10:54:17;3.07;;;1.10;;
19929;SDS011;10127;47.780;9.606;2022-12-24T10:56:44;3.80;;;1.13;;
19929;SDS011;10127;47.780;9.606;2022-12-24T10:59:24;3.80;;;1.20;;
19929;SDS011;10127;47.780;9.606;2022-12-24T11:01:53;3.17;;;1.10;;
19929;SDS011;10127;47.780;9.606;2022-12-24T11:04:44;1.57;;;1.20;;
19929;SDS011;10127;47.780;9.606;2022-12-24T11:07:15;3.97;;;1.13;;
19929;SDS011;10127;47.780;9.606;2022-12-24T11:09:44;2.33;;;0.97;;
19929;SDS011;10127;47.780;9.606;2022-12-24T11:12:24;1.17;;;1.07;;
19929;SDS011;10127;47.780;9.606;2022-12-24T11:14:59;0.70;;;0.70;;
19929;SDS011;10127;47.780;9.606;2022-12-24T11:17:31;2.07;;;1.00;;
19929;SDS011;10127;47.780;9.606;2022-12-24T11:19:58;1.80;;;1.00;;
19929;SDS011;10127;47.780;9.606;2022-12-24T11:22:30;4.22;;;1.10;;
19929;SDS011;10127;47.780;9.606;2022-12-24T11:25:01;1.93;;;1.13;;
19929;SDS011;10127;47.780;9.606;2022-12-24T11:27:38;2.67;;;1.00;;
19929;SDS011;10127;47.780;9.606;2022-12-24T11:32:43;2.23;;;0.90;;
19929;SDS011;10127;47.780;9.606;2022-12-24T11:35:15;1.07;;;0.90;;
19929;SDS011;10127;47.780;9.606;2022-12-24T11:37:48;1.83;;;0.93;;
19929;SDS011;10127;47.780;9.606;2022-12-24T11:40:41;1.53;;;0.90;;
19929;SDS011;10127;47.780;9.606;2022-12-24T11:43:15;2.10;;;1.03;;
19929;SDS011;10127;47.780;9.606;2022-12-24T11:45:56;2.43;;;0.97;;
19929;SDS011;10127;47.780;9.606;2022-12-24T11:50:58;3.95;;;1.25;;
19929;SDS011;10127;47.780;9.606;2022-12-24T11:53:43;0.60;;;0.60;;
19929;SDS011;10127;47.780;9.606;2022-12-24T11:59:14;2.70;;;1.00;;
19929;SDS011;10127;47.780;9.606;2022-12-24T12:01:55;1.53;;;1.03;;
19929;SDS011;10127;47.780;9.606;2022-12-24T12:04:27;1.20;;;1.10;;
19929;SDS011;10127;47.780;9.606;2022-12-24T12:07:05;1.60;;;1.07;;
19929;SDS011;10127;47.780;9.606;2022-12-24T12:09:39;2.53;;;0.90;;
19929;SDS011;10127;47.780;9.606;2022-12-24T12:12:13;2.33;;;1.10;;
19929;SDS011;10127;47.780;9.606;2022-12-24T12:14:43;1.73;;;1.00;;
19929;SDS011;10127;47.780;9.606;2022-12-24T12:19:43;3.57;;;1.07;;
19929;SDS011;10127;47.780;9.606;2022-12-24T12:22:24;2.08;;;1.05;;
19929;SDS011;10127;47.780;9.606;2022-12-24T12:24:54;3.25;;;1.20;;
19929;SDS011;10127;47.780;9.606;2022-12-24T12:29:56;2.20;;;1.37;;
19929;SDS011;10127;47.780;9.606;2022-12-24T12:32:35;3.08;;;1.20;;
19929;SDS011;10127;47.780;9.606;2022-12-24T12:35:03;1.73;;;1.00;;
19929;SDS011;10127;47.780;9.606;2022-12-24T12:37:40;2.10;;;1.30;;
19929;SDS011;10127;47.780;9.606;2022-12-24T12:40:12;2.50;;;1.30;;
19929;SDS011;10127;47.780;9.606;2022-12-24T12:42:40;3.00;;;1.58;;
19929;SDS011;10127;47.780;9.606;2022-12-24T12:45:31;2.63;;;1.90;;
19929;SDS011;10127;47.780;9.606;2022-12-24T12:50:49;2.33;;;1.77;;
19929;SDS011;10127;47.780;9.606;2022-12-24T12:56:22;2.83;;;1.20;;
19929;SDS011;10127;47.780;9.606;2022-12-24T12:59:08;9.32;;;1.40;;
19929;SDS011;10127;47.780;9.606;2022-12-24T13:01:48;1.10;;;0.85;;
19929;SDS011;10127;47.780;9.606;2022-12-24T13:12:56;2.00;;;1.20;;
19929;SDS011;10127;47.780;9.606;2022-12-24T13:15:51;2.33;;;1.37;;
19929;SDS011;10127;47.780;9.606;2022-12-24T13:20:57;1.92;;;1.48;;
19929;SDS011;10127;47.780;9.606;2022-12-24T13:23:23;3.60;;;1.67;;
19929;SDS011;10127;47.780;9.606;2022-12-24T13:25:52;3.50;;;1.70;;
19929;SDS011;10127;47.780;9.606;2022-12-24T13:30:49;2.05;;;1.17;;
19929;SDS011;10127;47.780;9.606;2022-12-24T13:41:35;1.85;;;1.38;;
19929;SDS011;10127;47.780;9.606;2022-12-24T13:44:21;4.83;;;1.33;;
19929;SDS011;10127;47.780;9.606;2022-12-24T13:46:53;3.97;;;1.60;;
19929;SDS011;10127;47.780;9.606;2022-12-24T13:54:34;6.60;;;1.70;;
19929;SDS011;10127;47.780;9.606;2022-12-24T13:57:14;3.85;;;2.10;;
19929;SDS011;10127;47.780;9.606;2022-12-24T14:00:06;4.05;;;2.25;;
19929;SDS011;10127;47.780;9.606;2022-12-24T14:05:38;4.47;;;1.90;;
19929;SDS011;10127;47.780;9.606;2022-12-24T14:08:09;3.83;;;2.10;;
19929;SDS011;10127;47.780;9.606;2022-12-24T14:11:05;4.00;;;2.08;;
19929;SDS011;10127;47.780;9.606;2022-12-24T14:16:04;5.13;;;1.77;;
19929;SDS011;10127;47.780;9.606;2022-12-24T14:18:34;3.97;;;1.90;;
19929;SDS011;10127;47.780;9.606;2022-12-24T14:21:03;3.83;;;1.70;;
19929;SDS011;10127;47.780;9.606;2022-12-24T14:23:51;3.28;;;2.05;;
19929;SDS011;10127;47.780;9.606;2022-12-24T14:26:33;5.15;;;2.50;;
19929;SDS011;10127;47.780;9.606;2022-12-24T14:31:54;2.90;;;1.50;;
19929;SDS011;10127;47.780;9.606;2022-12-24T14:34:21;2.25;;;1.58;;
19929;SDS011;10127;47.780;9.606;2022-12-24T14:36:47;2.22;;;1.38;;
19929;SDS011;10127;47.780;9.606;2022-12-24T14:39:21;1.88;;;1.50;;
19929;SDS011;10127;47.780;9.606;2022-12-24T14:42:16;1.77;;;1.45;;
19929;SDS011;10127;47.780;9.606;2022-12-24T14:54:01;7.60;;;1.52;;
19929;SDS011;10127;47.780;9.606;2022-12-24T14:56:40;3.33;;;1.50;;
19929;SDS011;10127;47.780;9.606;2022-12-24T14:59:16;3.85;;;1.90;;
19929;SDS011;10127;47.780;9.606;2022-12-24T15:01:43;4.50;;;2.30;;
19929;SDS011;10127;47.780;9.606;2022-12-24T15:06:45;1.50;;;1.40;;
19929;SDS011;10127;47.780;9.606;2022-12-24T15:11:47;3.70;;;2.10;;
19929;SDS011;10127;47.780;9.606;2022-12-24T15:14:15;4.88;;;1.88;;
19929;SDS011;10127;47.780;9.606;2022-12-24T15:16:42;2.88;;;1.63;;
19929;SDS011;10127;47.780;9.606;2022-12-24T15:19:36;1.70;;;1.43;;
19929;SDS011;10127;47.780;9.606;2022-12-24T15:22:09;2.28;;;1.48;;
19929;SDS011;10127;47.780;9.606;2022-12-24T15:24:44;1.63;;;1.30;;
19929;SDS011;10127;47.780;9.606;2022-12-24T15:27:24;2.25;;;1.48;;
19929;SDS011;10127;47.780;9.606;2022-12-24T15:29:52;1.83;;;1.33;;
19929;SDS011;10127;47.780;9.606;2022-12-24T15:32:20;1.98;;;1.40;;
19929;SDS011;10127;47.780;9.606;2022-12-24T15:34:47;2.07;;;1.10;;
19929;SDS011;10127;47.780;9.606;2022-12-24T15:37:19;1.80;;;1.40;;
19929;SDS011;10127;47.780;9.606;2022-12-24T15:42:26;1.97;;;1.20;;
19929;SDS011;10127;47.780;9.606;2022-12-24T15:47:28;2.57;;;1.20;;
19929;SDS011;10127;47.780;9.606;2022-12-24T15:50:03;2.40;;;1.17;;
19929;SDS011;10127;47.780;9.606;2022-12-24T15:52:43;3.38;;;1.40;;
19929;SDS011;10127;47.780;9.606;2022-12-24T15:55:23;3.03;;;1.45;;
19929;SDS011;10127;47.780;9.606;2022-12-24T15:57:52;3.05;;;1.38;;
19929;SDS011;10127;47.780;9.606;2022-12-24T16:00:22;1.50;;;1.17;;
19929;SDS011;10127;47.780;9.606;2022-12-24T16:02:51;2.70;;;1.50;;
19929;SDS011;10127;47.780;9.606;2022-12-24T16:08:06;1.63;;;1.50;;
19929;SDS011;10127;47.780;9.606;2022-12-24T16:10:48;3.70;;;1.88;;
19929;SDS011;10127;47.780;9.606;2022-12-24T16:15:52;2.95;;;1.50;;
19929;SDS011;10127;47.780;9.606;2022-12-24T16:18:30;2.10;;;1.30;;
19929;SDS011;10127;47.780;9.606;2022-12-24T16:20:56;1.92;;;1.63;;
19929;SDS011;10127;47.780;9.606;2022-12-24T16:23:29;3.47;;;2.30;;
19929;SDS011;10127;47.780;9.606;2022-12-24T16:26:01;3.27;;;2.23;;
19929;SDS011;10127;47.780;9.606;2022-12-24T16:28:27;3.65;;;1.85;;
19929;SDS011;10127;47.780;9.606;2022-12-24T16:30:52;6.23;;;2.30;;
19929;SDS011;10127;47.780;9.606;2022-12-24T16:33:20;2.55;;;1.92;;
19929;SDS011;10127;47.780;9.606;2022-12-24T16:35:47;3.07;;;2.00;;
19929;SDS011;10127;47.780;9.606;2022-12-24T16:38:13;2.42;;;1.77;;
19929;SDS011;10127;47.780;9.606;2022-12-24T16:40:39;2.13;;;1.40;;
19929;SDS011;10127;47.780;9.606;2022-12-24T16:43:05;1.65;;;1.10;;
19929;SDS011;10127;47.780;9.606;2022-12-24T16:45:50;4.23;;;1.53;;
19929;SDS011;10127;47.780;9.606;2022-12-24T16:48:20;1.83;;;1.50;;
19929;SDS011;10127;47.780;9.606;2022-12-24T16:50:47;4.63;;;1.55;;
19929;SDS011;10127;47.780;9.606;2022-12-24T16:53:14;1.85;;;1.52;;
19929;SDS011;10127;47.780;9.606;2022-12-24T16:55:41;2.10;;;1.60;;
19929;SDS011;10127;47.780;9.606;2022-12-24T16:58:08;1.75;;;1.50;;
19929;SDS011;10127;47.780;9.606;2022-12-24T17:00:37;1.80;;;1.67;;
19929;SDS011;10127;47.780;9.606;2022-12-24T17:03:03;2.45;;;1.83;;
19929;SDS011;10127;47.780;9.606;2022-12-24T17:05:29;2.10;;;1.90;;
19929;SDS011;10127;47.780;9.606;2022-12-24T17:07:54;3.13;;;2.23;;
19929;SDS011;10127;47.780;9.606;2022-12-24T17:10:22;4.13;;;2.57;;
19929;SDS011;10127;47.780;9.606;2022-12-24T17:12:48;3.13;;;2.30;;
19929;SDS011;10127;47.780;9.606;2022-12-24T17:15:13;6.00;;;2.77;;
19929;SDS011;10127;47.780;9.606;2022-12-24T17:17:39;8.10;;;2.60;;